sensor_id;sensor_type;location;lat;lon;timestamp;P1;P2;P0
77516;PMS7003;68414;53.946;27.634;2023-05-31T00:00:16;4.683333;4.000000;3.250000
77516;PMS7003;68414;53.946;27.634;2023-05-31T00:01:16;3.933333;3.933333;2.050000
77516;PMS7003;68414;53.946;27.634;2023-05-31T00:02:16;4.850000;4.350000;3.366667
77516;PMS7003;68414;53.946;27.634;2023-05-31T00:03:16;4.283333;4.000000;2.966667
77516;PMS7003;68414;53.946;27.634;2023-05-31T00:04:16;2.750000;2.716667;2.250000
77516;PMS7003;68414;53.946;27.634;2023-05-31T00:05:16;4.483333;3.816667;2.783333
77516;PMS7003;68414;53.946;27.634;2023-05-31T00:06:15;5.083333;4.616667;2.883333
77516;PMS7003;68414;53.946;27.634;2023-05-31T00:07:15;4.333333;4.333333;2.900000
77516;PMS7003;68414;53.946;27.634;2023-05-31T00:08:15;4.333333;4.083333;2.650000
77516;PMS7003;68414;53.946;27.634;2023-05-31T00:09:15;5.850000;4.316667;2.766667
77516;PMS7003;68414;53.946;27.634;2023-05-31T00:10:15;3.866667;3.716667;2.800000
77516;PMS7003;68414;53.946;27.634;2023-05-31T00:11:16;4.200000;3.983333;2.950000
77516;PMS7003;68414;53.946;27.634;2023-05-31T00:12:15;4.300000;4.300000;2.950000
77516;PMS7003;68414;53.946;27.634;2023-05-31T00:13:15;3.750000;3.666667;2.983333
77516;PMS7003;68414;53.946;27.634;2023-05-31T00:14:15;5.283333;4.650000;2.750000
77516;PMS7003;68414;53.946;27.634;2023-05-31T00:15:15;4.500000;3.783333;2.716667
77516;PMS7003;68414;53.946;27.634;2023-05-31T00:16:15;4.933333;4.933333;3.983333
77516;PMS7003;68414;53.946;27.634;2023-05-31T00:17:16;4.216667;3.650000;2.683333
77516;PMS7003;68414;53.946;27.634;2023-05-31T00:18:16;3.616667;3.616667;2.866667
77516;PMS7003;68414;53.946;27.634;2023-05-31T00:19:15;3.800000;3.800000;2.750000
77516;PMS7003;68414;53.946;27.634;2023-05-31T00:20:15;4.700000;4.066667;2.583333
77516;PMS7003;68414;53.946;27.634;2023-05-31T00:21:15;4.566667;3.766667;2.883333
77516;PMS7003;68414;53.946;27.634;2023-05-31T00:22:15;3.816667;3.350000;2.533333
77516;PMS7003;68414;53.946;27.634;2023-05-31T00:23:16;5.883333;4.766667;3.300000
77516;PMS7003;68414;53.946;27.634;2023-05-31T00:24:16;5.183333;4.383333;3.250000
77516;PMS7003;68414;53.946;27.634;2023-05-31T00:25:15;4.483333;4.233333;3.283333
77516;PMS7003;68414;53.946;27.634;2023-05-31T00:26:15;4.650000;3.900000;3.016667
77516;PMS7003;68414;53.946;27.634;2023-05-31T00:27:15;3.783333;3.516667;2.800000
77516;PMS7003;68414;53.946;27.634;2023-05-31T00:28:15;3.733333;3.733333;2.500000
77516;PMS7003;68414;53.946;27.634;2023-05-31T00:29:16;3.933333;3.933333;2.716667
77516;PMS7003;68414;53.946;27.634;2023-05-31T00:30:15;4.483333;3.050000;2.700000
77516;PMS7003;68414;53.946;27.634;2023-05-31T00:31:15;3.300000;3.266667;2.483333
77516;PMS7003;68414;53.946;27.634;2023-05-31T00:32:15;3.116667;3.116667;2.600000
77516;PMS7003;68414;53.946;27.634;2023-05-31T00:33:15;4.066667;3.800000;2.400000
77516;PMS7003;68414;53.946;27.634;2023-05-31T00:34:15;3.783333;3.383333;2.383333
77516;PMS7003;68414;53.946;27.634;2023-05-31T00:35:15;3.416667;3.416667;2.750000
77516;PMS7003;68414;53.946;27.634;2023-05-31T00:36:15;3.166667;3.166667;2.466667
77516;PMS7003;68414;53.946;27.634;2023-05-31T00:37:15;4.133333;3.783333;2.383333
77516;PMS7003;68414;53.946;27.634;2023-05-31T00:38:15;3.500000;3.500000;2.400000
77516;PMS7003;68414;53.946;27.634;2023-05-31T00:39:15;3.516667;2.916667;2.166667
77516;PMS7003;68414;53.946;27.634;2023-05-31T00:40:16;3.650000;3.616667;3.016667
77516;PMS7003;68414;53.946;27.634;2023-05-31T00:41:16;4.200000;3.750000;2.450000
77516;PMS7003;68414;53.946;27.634;2023-05-31T00:42:16;2.816667;2.816667;2.016667
77516;PMS7003;68414;53.946;27.634;2023-05-31T00:43:15;3.533333;3.500000;2.566667
77516;PMS7003;68414;53.946;27.634;2023-05-31T00:44:16;3.133333;2.816667;2.483333
77516;PMS7003;68414;53.946;27.634;2023-05-31T00:45:16;3.000000;2.550000;1.900000
77516;PMS7003;68414;53.946;27.634;2023-05-31T00:47:15;3.316667;3.316667;2.383333
77516;PMS7003;68414;53.946;27.634;2023-05-31T00:48:15;3.316667;2.800000;2.050000
77516;PMS7003;68414;53.946;27.634;2023-05-31T00:49:15;4.216667;4.133333;2.966667
77516;PMS7003;68414;53.946;27.634;2023-05-31T00:50:16;5.433333;4.866667;3.400000
77516;PMS7003;68414;53.946;27.634;2023-05-31T00:51:16;4.600000;4.366667;3.183333
77516;PMS7003;68414;53.946;27.634;2023-05-31T00:52:15;3.450000;3.150000;2.683333
77516;PMS7003;68414;53.946;27.634;2023-05-31T00:53:16;4.883333;4.033333;3.000000
77516;PMS7003;68414;53.946;27.634;2023-05-31T00:54:16;4.550000;4.316667;3.050000
77516;PMS7003;68414;53.946;27.634;2023-05-31T00:55:16;4.650000;4.183333;2.983333
77516;PMS7003;68414;53.946;27.634;2023-05-31T00:56:16;4.716667;4.583333;3.266667
77516;PMS7003;68414;53.946;27.634;2023-05-31T00:57:16;3.583333;3.583333;2.783333
77516;PMS7003;68414;53.946;27.634;2023-05-31T00:58:16;3.300000;3.200000;2.383333
77516;PMS7003;68414;53.946;27.634;2023-05-31T00:59:16;4.766667;3.383333;2.950000
77516;PMS7003;68414;53.946;27.634;2023-05-31T01:00:16;4.700000;4.250000;2.500000
77516;PMS7003;68414;53.946;27.634;2023-05-31T01:01:16;3.983333;3.800000;2.983333
77516;PMS7003;68414;53.946;27.634;2023-05-31T01:02:16;3.916667;3.716667;2.416667
77516;PMS7003;68414;53.946;27.634;2023-05-31T01:03:15;3.166667;3.166667;2.433333
77516;PMS7003;68414;53.946;27.634;2023-05-31T01:04:16;3.933333;3.933333;3.200000
77516;PMS7003;68414;53.946;27.634;2023-05-31T01:05:16;4.666667;4.000000;2.850000
77516;PMS7003;68414;53.946;27.634;2023-05-31T01:06:15;5.616667;4.466667;3.366667
77516;PMS7003;68414;53.946;27.634;2023-05-31T01:07:15;4.850000;4.100000;3.200000
77516;PMS7003;68414;53.946;27.634;2023-05-31T01:08:15;3.816667;3.250000;2.733333
77516;PMS7003;68414;53.946;27.634;2023-05-31T01:09:16;4.366667;3.466667;2.566667
77516;PMS7003;68414;53.946;27.634;2023-05-31T01:10:15;3.916667;3.550000;2.583333
77516;PMS7003;68414;53.946;27.634;2023-05-31T01:11:19;4.616667;4.466667;3.133333
77516;PMS7003;68414;53.946;27.634;2023-05-31T01:18:20;3.683333;3.316667;2.516667
77516;PMS7003;68414;53.946;27.634;2023-05-31T01:19:20;3.533333;3.533333;2.950000
77516;PMS7003;68414;53.946;27.634;2023-05-31T01:20:17;4.050000;3.300000;2.533333
77516;PMS7003;68414;53.946;27.634;2023-05-31T01:21:17;4.133333;3.716667;2.716667
77516;PMS7003;68414;53.946;27.634;2023-05-31T01:27:16;4.216667;4.083333;3.166667
77516;PMS7003;68414;53.946;27.634;2023-05-31T01:28:16;4.633333;4.250000;2.666667
77516;PMS7003;68414;53.946;27.634;2023-05-31T01:29:18;5.150000;3.833333;2.583333
77516;PMS7003;68414;53.946;27.634;2023-05-31T01:30:16;4.283333;4.083333;3.216667
77516;PMS7003;68414;53.946;27.634;2023-05-31T01:31:18;3.200000;3.200000;2.016667
77516;PMS7003;68414;53.946;27.634;2023-05-31T01:32:16;4.250000;3.500000;2.766667
77516;PMS7003;68414;53.946;27.634;2023-05-31T01:33:16;5.516667;4.450000;3.316667
77516;PMS7003;68414;53.946;27.634;2023-05-31T01:34:15;6.116667;4.866667;3.266667
77516;PMS7003;68414;53.946;27.634;2023-05-31T01:35:16;4.983333;4.383333;2.983333
77516;PMS7003;68414;53.946;27.634;2023-05-31T01:36:15;4.933333;3.783333;2.600000
77516;PMS7003;68414;53.946;27.634;2023-05-31T01:37:15;4.450000;4.450000;3.266667
77516;PMS7003;68414;53.946;27.634;2023-05-31T01:38:15;4.066667;4.000000;2.466667
77516;PMS7003;68414;53.946;27.634;2023-05-31T01:39:16;5.500000;4.516667;3.383333
77516;PMS7003;68414;53.946;27.634;2023-05-31T01:40:16;4.266667;4.266667;3.216667
77516;PMS7003;68414;53.946;27.634;2023-05-31T01:41:16;4.583333;4.150000;2.750000
77516;PMS7003;68414;53.946;27.634;2023-05-31T01:42:16;3.966667;3.750000;2.816667
77516;PMS7003;68414;53.946;27.634;2023-05-31T01:43:16;3.516667;3.266667;2.883333
77516;PMS7003;68414;53.946;27.634;2023-05-31T01:44:16;4.650000;4.316667;3.050000
77516;PMS7003;68414;53.946;27.634;2023-05-31T01:45:16;4.983333;4.900000;3.366667
77516;PMS7003;68414;53.946;27.634;2023-05-31T01:46:17;4.416667;4.350000;3.450000
77516;PMS7003;68414;53.946;27.634;2023-05-31T01:47:16;4.516667;4.516667;3.466667
77516;PMS7003;68414;53.946;27.634;2023-05-31T01:48:15;4.433333;4.433333;3.533333
77516;PMS7003;68414;53.946;27.634;2023-05-31T01:49:16;3.850000;3.850000;3.400000
77516;PMS7003;68414;53.946;27.634;2023-05-31T01:50:17;5.133333;4.333333;3.716667
77516;PMS7003;68414;53.946;27.634;2023-05-31T01:51:16;4.766667;4.616667;3.600000
77516;PMS7003;68414;53.946;27.634;2023-05-31T01:52:17;4.633333;4.400000;3.116667
77516;PMS7003;68414;53.946;27.634;2023-05-31T01:53:16;3.800000;3.800000;2.983333
77516;PMS7003;68414;53.946;27.634;2023-05-31T01:54:16;5.033333;4.583333;3.716667
77516;PMS7003;68414;53.946;27.634;2023-05-31T01:55:16;4.483333;4.133333;3.383333
77516;PMS7003;68414;53.946;27.634;2023-05-31T01:56:16;3.966667;3.966667;3.466667
77516;PMS7003;68414;53.946;27.634;2023-05-31T01:57:17;4.566667;4.566667;3.333333
77516;PMS7003;68414;53.946;27.634;2023-05-31T01:58:16;5.016667;4.733333;3.416667
77516;PMS7003;68414;53.946;27.634;2023-05-31T01:59:16;5.083333;5.083333;3.166667
77516;PMS7003;68414;53.946;27.634;2023-05-31T02:00:16;5.183333;5.183333;3.850000
77516;PMS7003;68414;53.946;27.634;2023-05-31T02:01:17;5.300000;5.100000;3.200000
77516;PMS7003;68414;53.946;27.634;2023-05-31T02:02:16;4.916667;4.783333;3.500000
77516;PMS7003;68414;53.946;27.634;2023-05-31T02:03:18;4.750000;4.083333;3.233333
77516;PMS7003;68414;53.946;27.634;2023-05-31T02:04:18;3.700000;3.550000;3.016667
77516;PMS7003;68414;53.946;27.634;2023-05-31T02:05:15;4.983333;4.550000;3.116667
77516;PMS7003;68414;53.946;27.634;2023-05-31T02:06:15;4.100000;4.100000;3.400000
77516;PMS7003;68414;53.946;27.634;2023-05-31T02:07:15;4.650000;4.400000;2.933333
77516;PMS7003;68414;53.946;27.634;2023-05-31T02:08:15;4.150000;3.983333;2.833333
77516;PMS7003;68414;53.946;27.634;2023-05-31T02:09:15;4.350000;3.966667;3.216667
77516;PMS7003;68414;53.946;27.634;2023-05-31T02:10:15;4.050000;4.050000;3.450000
77516;PMS7003;68414;53.946;27.634;2023-05-31T02:11:15;5.583333;5.116667;3.566667
77516;PMS7003;68414;53.946;27.634;2023-05-31T02:12:15;5.816667;5.300000;4.016667
77516;PMS7003;68414;53.946;27.634;2023-05-31T02:13:15;4.300000;4.233333;3.333333
77516;PMS7003;68414;53.946;27.634;2023-05-31T02:14:15;4.083333;3.950000;3.100000
77516;PMS7003;68414;53.946;27.634;2023-05-31T02:15:16;4.383333;4.233333;3.600000
77516;PMS7003;68414;53.946;27.634;2023-05-31T02:16:15;5.500000;5.500000;3.916667
77516;PMS7003;68414;53.946;27.634;2023-05-31T02:17:15;5.766667;5.766667;3.933333
77516;PMS7003;68414;53.946;27.634;2023-05-31T02:18:15;7.316667;7.316667;4.866667
77516;PMS7003;68414;53.946;27.634;2023-05-31T02:19:15;4.400000;3.966667;2.883333
77516;PMS7003;68414;53.946;27.634;2023-05-31T02:20:15;5.066667;4.616667;3.250000
77516;PMS7003;68414;53.946;27.634;2023-05-31T02:21:15;4.200000;4.200000;3.533333
77516;PMS7003;68414;53.946;27.634;2023-05-31T02:22:15;5.833333;5.083333;3.600000
77516;PMS7003;68414;53.946;27.634;2023-05-31T02:23:16;6.450000;6.450000;3.983333
77516;PMS7003;68414;53.946;27.634;2023-05-31T02:24:15;4.433333;3.466667;2.800000
77516;PMS7003;68414;53.946;27.634;2023-05-31T02:25:15;5.433333;4.883333;3.416667
77516;PMS7003;68414;53.946;27.634;2023-05-31T02:26:16;5.716667;5.450000;4.466667
77516;PMS7003;68414;53.946;27.634;2023-05-31T02:27:15;6.783333;5.583333;4.366667
77516;PMS7003;68414;53.946;27.634;2023-05-31T02:28:16;6.616667;5.800000;4.583333
77516;PMS7003;68414;53.946;27.634;2023-05-31T02:29:15;6.316667;5.700000;4.183333
77516;PMS7003;68414;53.946;27.634;2023-05-31T02:30:15;5.116667;4.750000;3.200000
77516;PMS7003;68414;53.946;27.634;2023-05-31T02:31:15;6.166667;6.166667;4.550000
77516;PMS7003;68414;53.946;27.634;2023-05-31T02:32:15;6.550000;6.183333;4.583333
77516;PMS7003;68414;53.946;27.634;2023-05-31T02:33:15;6.483333;5.433333;4.283333
77516;PMS7003;68414;53.946;27.634;2023-05-31T02:34:15;5.783333;5.483333;3.883333
77516;PMS7003;68414;53.946;27.634;2023-05-31T02:35:15;5.116667;4.550000;3.466667
77516;PMS7003;68414;53.946;27.634;2023-05-31T02:36:15;6.983333;6.533333;5.016667
77516;PMS7003;68414;53.946;27.634;2023-05-31T02:37:15;6.766667;5.516667;4.350000
77516;PMS7003;68414;53.946;27.634;2023-05-31T02:38:16;6.516667;5.983333;4.383333
77516;PMS7003;68414;53.946;27.634;2023-05-31T02:39:15;6.183333;5.933333;4.450000
77516;PMS7003;68414;53.946;27.634;2023-05-31T02:40:16;5.266667;4.983333;3.800000
77516;PMS7003;68414;53.946;27.634;2023-05-31T02:41:15;5.483333;5.300000;3.766667
77516;PMS7003;68414;53.946;27.634;2023-05-31T02:42:15;6.750000;6.016667;4.333333
77516;PMS7003;68414;53.946;27.634;2023-05-31T02:43:15;5.950000;5.950000;4.666667
77516;PMS7003;68414;53.946;27.634;2023-05-31T02:44:15;6.733333;6.050000;4.450000
77516;PMS7003;68414;53.946;27.634;2023-05-31T02:45:15;5.300000;4.383333;3.583333
77516;PMS7003;68414;53.946;27.634;2023-05-31T02:46:15;5.100000;4.950000;3.416667
77516;PMS7003;68414;53.946;27.634;2023-05-31T02:47:16;4.983333;4.883333;3.333333
77516;PMS7003;68414;53.946;27.634;2023-05-31T02:48:15;5.650000;5.333333;3.916667
77516;PMS7003;68414;53.946;27.634;2023-05-31T02:49:15;4.716667;4.716667;3.700000
77516;PMS7003;68414;53.946;27.634;2023-05-31T02:50:15;7.533333;6.650000;4.700000
77516;PMS7003;68414;53.946;27.634;2023-05-31T02:51:15;5.533333;5.083333;3.466667
77516;PMS7003;68414;53.946;27.634;2023-05-31T02:52:15;6.766667;6.033333;4.000000
77516;PMS7003;68414;53.946;27.634;2023-05-31T02:53:15;6.166667;5.633333;3.916667
77516;PMS7003;68414;53.946;27.634;2023-05-31T02:54:15;4.833333;4.233333;3.350000
77516;PMS7003;68414;53.946;27.634;2023-05-31T02:55:15;5.050000;4.950000;3.633333
77516;PMS7003;68414;53.946;27.634;2023-05-31T02:56:15;5.233333;4.233333;3.483333
77516;PMS7003;68414;53.946;27.634;2023-05-31T02:57:15;5.633333;4.100000;3.483333
77516;PMS7003;68414;53.946;27.634;2023-05-31T02:58:15;4.683333;4.683333;3.316667
77516;PMS7003;68414;53.946;27.634;2023-05-31T02:59:15;5.600000;5.600000;3.833333
77516;PMS7003;68414;53.946;27.634;2023-05-31T03:00:16;5.483333;5.000000;3.600000
77516;PMS7003;68414;53.946;27.634;2023-05-31T03:01:15;5.883333;5.350000;4.466667
77516;PMS7003;68414;53.946;27.634;2023-05-31T03:02:15;5.750000;4.433333;3.500000
77516;PMS7003;68414;53.946;27.634;2023-05-31T03:03:15;4.866667;4.866667;4.033333
77516;PMS7003;68414;53.946;27.634;2023-05-31T03:04:15;5.550000;5.550000;4.400000
77516;PMS7003;68414;53.946;27.634;2023-05-31T03:05:16;6.250000;6.100000;4.733333
77516;PMS7003;68414;53.946;27.634;2023-05-31T03:06:16;6.133333;5.550000;4.266667
77516;PMS7003;68414;53.946;27.634;2023-05-31T03:07:16;6.783333;6.466667;4.300000
77516;PMS7003;68414;53.946;27.634;2023-05-31T03:08:16;5.516667;4.783333;3.466667
77516;PMS7003;68414;53.946;27.634;2023-05-31T03:09:16;5.683333;4.633333;3.366667
77516;PMS7003;68414;53.946;27.634;2023-05-31T03:10:16;5.933333;5.266667;4.016667
77516;PMS7003;68414;53.946;27.634;2023-05-31T03:11:15;5.666667;5.000000;4.033333
77516;PMS7003;68414;53.946;27.634;2023-05-31T03:12:15;4.783333;4.433333;3.383333
77516;PMS7003;68414;53.946;27.634;2023-05-31T03:13:17;6.000000;4.916667;3.750000
77516;PMS7003;68414;53.946;27.634;2023-05-31T03:14:15;4.366667;3.666667;2.883333
77516;PMS7003;68414;53.946;27.634;2023-05-31T03:15:16;4.300000;3.716667;2.883333
77516;PMS7003;68414;53.946;27.634;2023-05-31T03:16:15;5.733333;5.666667;3.816667
77516;PMS7003;68414;53.946;27.634;2023-05-31T03:17:15;4.633333;3.883333;3.083333
77516;PMS7003;68414;53.946;27.634;2023-05-31T03:18:15;4.600000;4.600000;3.250000
77516;PMS7003;68414;53.946;27.634;2023-05-31T03:19:15;3.600000;3.600000;2.683333
77516;PMS7003;68414;53.946;27.634;2023-05-31T03:20:16;4.216667;4.216667;3.150000
77516;PMS7003;68414;53.946;27.634;2023-05-31T03:21:16;5.950000;4.150000;3.450000
77516;PMS7003;68414;53.946;27.634;2023-05-31T03:22:16;5.400000;4.116667;3.216667
77516;PMS7003;68414;53.946;27.634;2023-05-31T03:23:15;4.766667;3.600000;3.100000
77516;PMS7003;68414;53.946;27.634;2023-05-31T03:24:16;3.666667;3.450000;2.800000
77516;PMS7003;68414;53.946;27.634;2023-05-31T03:25:15;4.283333;3.583333;2.683333
77516;PMS7003;68414;53.946;27.634;2023-05-31T03:26:15;4.416667;4.183333;3.183333
77516;PMS7003;68414;53.946;27.634;2023-05-31T03:27:17;4.166667;3.650000;2.700000
77516;PMS7003;68414;53.946;27.634;2023-05-31T03:28:15;4.883333;4.083333;2.466667
77516;PMS7003;68414;53.946;27.634;2023-05-31T03:29:17;3.916667;3.383333;2.116667
77516;PMS7003;68414;53.946;27.634;2023-05-31T03:30:16;4.200000;3.050000;2.300000
77516;PMS7003;68414;53.946;27.634;2023-05-31T03:31:16;3.700000;3.533333;2.416667
77516;PMS7003;68414;53.946;27.634;2023-05-31T03:32:15;3.800000;3.383333;2.566667
77516;PMS7003;68414;53.946;27.634;2023-05-31T03:33:17;3.133333;2.583333;2.266667
77516;PMS7003;68414;53.946;27.634;2023-05-31T03:34:15;3.366667;2.933333;1.916667
77516;PMS7003;68414;53.946;27.634;2023-05-31T03:35:17;3.250000;3.066667;2.316667
77516;PMS7003;68414;53.946;27.634;2023-05-31T03:36:16;3.683333;3.616667;2.216667
77516;PMS7003;68414;53.946;27.634;2023-05-31T03:37:16;4.400000;4.050000;2.733333
77516;PMS7003;68414;53.946;27.634;2023-05-31T03:38:15;3.833333;3.616667;2.483333
77516;PMS7003;68414;53.946;27.634;2023-05-31T03:39:15;4.600000;3.433333;2.616667
77516;PMS7003;68414;53.946;27.634;2023-05-31T03:40:17;3.666667;3.100000;2.616667
77516;PMS7003;68414;53.946;27.634;2023-05-31T03:41:17;3.716667;3.216667;2.250000
77516;PMS7003;68414;53.946;27.634;2023-05-31T03:42:17;4.183333;3.983333;2.666667
77516;PMS7003;68414;53.946;27.634;2023-05-31T03:43:15;3.716667;3.716667;2.633333
77516;PMS7003;68414;53.946;27.634;2023-05-31T03:44:15;2.183333;2.183333;1.550000
77516;PMS7003;68414;53.946;27.634;2023-05-31T03:45:17;2.866667;2.866667;2.566667
77516;PMS7003;68414;53.946;27.634;2023-05-31T03:46:15;3.350000;2.633333;1.883333
77516;PMS7003;68414;53.946;27.634;2023-05-31T03:47:16;4.066667;3.316667;2.316667
77516;PMS7003;68414;53.946;27.634;2023-05-31T03:48:15;2.983333;2.983333;2.266667
77516;PMS7003;68414;53.946;27.634;2023-05-31T03:49:15;3.350000;3.350000;2.400000
77516;PMS7003;68414;53.946;27.634;2023-05-31T03:50:16;3.666667;3.200000;2.416667
77516;PMS7003;68414;53.946;27.634;2023-05-31T03:51:16;3.933333;3.666667;2.616667
77516;PMS7003;68414;53.946;27.634;2023-05-31T03:52:15;2.766667;2.766667;1.683333
77516;PMS7003;68414;53.946;27.634;2023-05-31T03:53:17;4.066667;3.683333;2.400000
77516;PMS7003;68414;53.946;27.634;2023-05-31T03:54:16;2.950000;2.950000;2.050000
77516;PMS7003;68414;53.946;27.634;2023-05-31T03:55:16;2.666667;2.500000;2.166667
77516;PMS7003;68414;53.946;27.634;2023-05-31T03:56:17;2.616667;2.250000;1.550000
77516;PMS7003;68414;53.946;27.634;2023-05-31T03:57:15;2.416667;2.416667;1.966667
77516;PMS7003;68414;53.946;27.634;2023-05-31T03:58:18;2.466667;2.366667;1.816667
77516;PMS7003;68414;53.946;27.634;2023-05-31T03:59:15;2.183333;2.100000;1.500000
77516;PMS7003;68414;53.946;27.634;2023-05-31T04:00:18;2.616667;2.416667;2.133333
77516;PMS7003;68414;53.946;27.634;2023-05-31T04:01:16;2.733333;2.366667;1.533333
77516;PMS7003;68414;53.946;27.634;2023-05-31T04:02:17;3.166667;3.033333;2.166667
77516;PMS7003;68414;53.946;27.634;2023-05-31T04:03:15;4.733333;3.616667;2.433333
77516;PMS7003;68414;53.946;27.634;2023-05-31T04:04:15;7.850000;7.116667;4.483333
77516;PMS7003;68414;53.946;27.634;2023-05-31T04:05:16;4.833333;4.666667;3.383333
77516;PMS7003;68414;53.946;27.634;2023-05-31T04:06:16;4.233333;3.916667;3.016667
77516;PMS7003;68414;53.946;27.634;2023-05-31T04:07:18;3.733333;3.583333;2.950000
77516;PMS7003;68414;53.946;27.634;2023-05-31T04:08:17;2.883333;2.883333;2.250000
77516;PMS7003;68414;53.946;27.634;2023-05-31T04:09:15;2.716667;2.716667;1.916667
77516;PMS7003;68414;53.946;27.634;2023-05-31T04:10:18;4.000000;4.000000;3.400000
77516;PMS7003;68414;53.946;27.634;2023-05-31T04:11:15;3.066667;3.066667;2.266667
77516;PMS7003;68414;53.946;27.634;2023-05-31T04:12:15;2.683333;2.683333;2.066667
77516;PMS7003;68414;53.946;27.634;2023-05-31T04:13:15;3.383333;3.133333;1.800000
77516;PMS7003;68414;53.946;27.634;2023-05-31T04:14:15;2.983333;1.983333;1.333333
77516;PMS7003;68414;53.946;27.634;2023-05-31T04:15:16;3.266667;3.100000;2.200000
77516;PMS7003;68414;53.946;27.634;2023-05-31T04:16:16;2.583333;2.583333;2.150000
77516;PMS7003;68414;53.946;27.634;2023-05-31T04:17:15;3.083333;3.083333;2.066667
77516;PMS7003;68414;53.946;27.634;2023-05-31T04:18:15;2.816667;2.633333;1.900000
77516;PMS7003;68414;53.946;27.634;2023-05-31T04:19:15;2.616667;2.416667;2.083333
77516;PMS7003;68414;53.946;27.634;2023-05-31T04:20:17;3.333333;3.300000;2.216667
77516;PMS7003;68414;53.946;27.634;2023-05-31T04:21:15;3.233333;2.683333;2.350000
77516;PMS7003;68414;53.946;27.634;2023-05-31T04:22:15;2.433333;2.433333;1.816667
77516;PMS7003;68414;53.946;27.634;2023-05-31T04:23:16;2.550000;2.550000;1.783333
77516;PMS7003;68414;53.946;27.634;2023-05-31T04:24:17;2.533333;2.533333;1.716667
77516;PMS7003;68414;53.946;27.634;2023-05-31T04:25:16;3.800000;3.350000;2.783333
77516;PMS7003;68414;53.946;27.634;2023-05-31T04:26:17;5.000000;4.816667;3.533333
77516;PMS7003;68414;53.946;27.634;2023-05-31T04:27:15;3.783333;2.783333;2.016667
77516;PMS7003;68414;53.946;27.634;2023-05-31T04:28:15;3.116667;2.233333;1.633333
77516;PMS7003;68414;53.946;27.634;2023-05-31T04:29:15;2.416667;2.416667;1.833333
77516;PMS7003;68414;53.946;27.634;2023-05-31T04:30:15;2.566667;2.416667;1.900000
77516;PMS7003;68414;53.946;27.634;2023-05-31T04:31:15;2.566667;2.366667;1.850000
77516;PMS7003;68414;53.946;27.634;2023-05-31T04:32:15;3.200000;2.683333;2.083333
77516;PMS7003;68414;53.946;27.634;2023-05-31T04:33:15;2.933333;2.466667;1.683333
77516;PMS7003;68414;53.946;27.634;2023-05-31T04:34:18;3.950000;3.650000;2.600000
77516;PMS7003;68414;53.946;27.634;2023-05-31T04:35:15;3.716667;3.266667;2.566667
77516;PMS7003;68414;53.946;27.634;2023-05-31T04:36:15;3.933333;3.366667;2.400000
77516;PMS7003;68414;53.946;27.634;2023-05-31T04:37:15;3.866667;3.016667;2.516667
77516;PMS7003;68414;53.946;27.634;2023-05-31T04:38:15;3.466667;2.816667;1.900000
77516;PMS7003;68414;53.946;27.634;2023-05-31T04:39:15;2.166667;2.166667;1.416667
77516;PMS7003;68414;53.946;27.634;2023-05-31T04:40:15;1.983333;1.983333;1.483333
77516;PMS7003;68414;53.946;27.634;2023-05-31T04:41:16;1.966667;1.866667;1.350000
77516;PMS7003;68414;53.946;27.634;2023-05-31T04:42:15;2.266667;1.900000;1.383333
77516;PMS7003;68414;53.946;27.634;2023-05-31T04:43:17;2.800000;2.383333;1.666667
77516;PMS7003;68414;53.946;27.634;2023-05-31T04:44:15;1.716667;1.400000;1.066667
77516;PMS7003;68414;53.946;27.634;2023-05-31T04:45:15;1.250000;1.250000;0.550000
77516;PMS7003;68414;53.946;27.634;2023-05-31T04:46:17;1.750000;1.483333;0.933333
77516;PMS7003;68414;53.946;27.634;2023-05-31T04:47:17;2.200000;1.800000;1.033333
77516;PMS7003;68414;53.946;27.634;2023-05-31T04:48:15;1.366667;1.233333;0.766667
77516;PMS7003;68414;53.946;27.634;2023-05-31T04:49:16;1.100000;1.100000;0.766667
77516;PMS7003;68414;53.946;27.634;2023-05-31T04:50:17;1.250000;1.250000;1.100000
77516;PMS7003;68414;53.946;27.634;2023-05-31T04:51:17;1.816667;1.683333;1.033333
77516;PMS7003;68414;53.946;27.634;2023-05-31T04:52:16;2.333333;1.816667;1.333333
77516;PMS7003;68414;53.946;27.634;2023-05-31T04:53:16;1.633333;1.633333;1.050000
77516;PMS7003;68414;53.946;27.634;2023-05-31T04:54:15;1.833333;1.833333;1.000000
77516;PMS7003;68414;53.946;27.634;2023-05-31T04:55:15;1.916667;1.916667;1.033333
77516;PMS7003;68414;53.946;27.634;2023-05-31T04:56:15;1.716667;1.333333;0.633333
77516;PMS7003;68414;53.946;27.634;2023-05-31T04:57:17;2.050000;1.466667;1.050000
77516;PMS7003;68414;53.946;27.634;2023-05-31T04:58:16;3.166667;2.550000;1.816667
77516;PMS7003;68414;53.946;27.634;2023-05-31T04:59:15;1.833333;1.700000;0.533333
77516;PMS7003;68414;53.946;27.634;2023-05-31T05:00:18;1.183333;1.183333;0.900000
77516;PMS7003;68414;53.946;27.634;2023-05-31T05:01:16;0.916667;0.483333;0.433333
77516;PMS7003;68414;53.946;27.634;2023-05-31T05:02:17;2.233333;1.550000;0.616667
77516;PMS7003;68414;53.946;27.634;2023-05-31T05:03:15;1.900000;1.333333;0.933333
77516;PMS7003;68414;53.946;27.634;2023-05-31T05:04:15;1.433333;1.183333;0.683333
77516;PMS7003;68414;53.946;27.634;2023-05-31T05:05:15;0.983333;0.683333;0.483333
77516;PMS7003;68414;53.946;27.634;2023-05-31T05:06:16;2.383333;1.850000;1.000000